Time;durP1;ratioP1;P1;durP2;ratioP2;P2;SDS_P1;SDS_P2;PMS_P1;PMS_P2;Temp;Humidity;BMP_temperature;BMP_pressure;BME280_temperature;BME280_humidity;BME280_pressure;Samples;Min_cycle;Max_cycle;Signal;HPM_P1;HPM_P2
2020/12/02 00:00:46;;;;;;;31.05;16.27;;;3.90;81.20;;;;;;4975288;28;20084;-64
2020/12/02 00:03:23;;;;;;;93.35;16.90;;;3.90;81.40;;;;;;4993527;28;20042;-64
2020/12/02 00:05:52;;;;;;;25.23;13.60;;;3.90;81.60;;;;;;5008102;28;20061;-64
2020/12/02 00:08:34;;;;;;;160.80;18.10;;;3.90;81.60;;;;;;4996757;28;20169;-65
2020/12/02 00:11:07;;;;;;;114.72;17.25;;;3.90;81.80;;;;;;5000146;28;20041;-64
2020/12/02 00:13:37;;;;;;;31.90;13.65;;;3.80;81.60;;;;;;5009042;28;20117;-64
2020/12/02 00:16:05;;;;;;;27.55;13.68;;;3.80;81.60;;;;;;5005043;28;20042;-64
2020/12/02 00:18:32;;;;;;;24.42;12.95;;;3.80;81.80;;;;;;5008170;28;20041;-64
2020/12/02 00:20:57;;;;;;;26.08;12.70;;;3.70;81.90;;;;;;5001113;28;20084;-64
2020/12/02 00:23:23;;;;;;;22.85;12.52;;;3.70;82.00;;;;;;5010695;28;20121;-64
2020/12/02 00:25:49;;;;;;;35.35;13.52;;;3.80;82.00;;;;;;5009345;28;20909;-64
2020/12/02 00:28:14;;;;;;;32.13;12.73;;;3.80;82.00;;;;;;5007312;28;20033;-64
2020/12/02 00:30:41;;;;;;;35.53;13.73;;;3.80;82.00;;;;;;5010118;28;20053;-64
2020/12/02 00:33:23;;;;;;;30.35;12.43;;;3.80;82.00;;;;;;5004839;28;20554;-64
2020/12/02 00:35:50;;;;;;;41.58;13.43;;;3.80;82.10;;;;;;4990903;28;20038;-64
2020/12/02 00:38:17;;;;;;;40.63;13.85;;;3.80;81.90;;;;;;5006334;28;20042;-64
2020/12/02 00:40:46;;;;;;;42.05;13.65;;;3.80;81.90;;;;;;5007570;28;20048;-63
2020/12/02 00:43:28;;;;;;;50.08;12.77;;;3.80;81.90;;;;;;5003467;28;20029;-63
2020/12/02 00:45:58;;;;;;;47.35;13.18;;;3.80;82.00;;;;;;5010038;28;20123;-63
2020/12/02 00:48:27;;;;;;;61.08;14.10;;;3.80;81.90;;;;;;4997101;28;20194;-64
2020/12/02 00:50:54;;;;;;;23.88;12.20;;;3.80;81.80;;;;;;5007496;28;20026;-64
2020/12/02 00:53:34;;;;;;;47.13;14.13;;;3.80;81.90;;;;;;5007488;28;20030;-63
2020/12/02 00:56:01;;;;;;;49.65;14.18;;;3.80;82.00;;;;;;5001582;28;20398;-63
2020/12/02 00:58:46;;;;;;;23.55;12.43;;;3.90;82.00;;;;;;5004977;28;20034;-64
2020/12/02 01:01:23;;;;;;;27.37;12.37;;;3.80;81.90;;;;;;5006483;28;20113;-63
2020/12/02 01:03:49;;;;;;;62.03;13.73;;;3.80;82.00;;;;;;5005470;28;20281;-63
2020/12/02 01:06:16;;;;;;;126.38;16.00;;;3.80;82.00;;;;;;5009363;28;20096;-63
2020/12/02 01:08:45;;;;;;;43.67;13.23;;;3.80;82.00;;;;;;5000909;28;20030;-63
2020/12/02 01:11:17;;;;;;;50.50;12.25;;;3.90;82.00;;;;;;5003260;28;20057;-63
2020/12/02 01:13:44;;;;;;;45.42;12.27;;;3.80;82.00;;;;;;4994439;28;20132;-63
2020/12/02 01:16:17;;;;;;;34.22;13.07;;;3.80;82.80;;;;;;5001899;28;20108;-64
2020/12/02 01:18:43;;;;;;;38.72;13.18;;;3.80;82.00;;;;;;5008344;28;20038;-64
2020/12/02 01:21:16;;;;;;;88.63;15.20;;;3.80;82.00;;;;;;5008984;28;20030;-63
2020/12/02 01:23:50;;;;;;;34.17;13.15;;;3.80;82.10;;;;;;5005359;28;20045;-64
2020/12/02 01:26:17;;;;;;;69.72;13.82;;;3.80;82.10;;;;;;4993154;28;20034;-64
2020/12/02 01:28:47;;;;;;;46.28;14.02;;;3.90;82.10;;;;;;4988101;28;20064;-64
2020/12/02 01:31:13;;;;;;;42.17;14.27;;;3.90;82.10;;;;;;5007351;28;20045;-65
2020/12/02 01:33:39;;;;;;;38.40;14.15;;;3.90;82.00;;;;;;5007002;28;20030;-64
2020/12/02 01:36:07;;;;;;;45.20;13.65;;;3.90;82.00;;;;;;5005028;28;20034;-64
2020/12/02 01:38:39;;;;;;;48.88;13.38;;;3.90;82.10;;;;;;5006127;28;20049;-63
2020/12/02 01:41:04;;;;;;;37.00;13.52;;;3.90;82.00;;;;;;5006645;28;20101;-64
2020/12/02 01:43:30;;;;;;;36.35;13.88;;;3.90;82.00;;;;;;5000655;28;20042;-64
2020/12/02 01:46:03;;;;;;;26.02;13.98;;;3.90;82.00;;;;;;5004944;28;20647;-64
2020/12/02 01:48:56;;;;;;;25.17;12.70;;;3.90;82.00;;;;;;5003929;28;20030;-64
2020/12/02 01:51:34;;;;;;;23.50;12.93;;;3.90;82.10;;;;;;4987943;28;20564;-63
2020/12/02 01:54:11;;;;;;;23.02;11.90;;;3.90;82.00;;;;;;4988243;28;20546;-64
2020/12/02 01:56:46;;;;;;;22.52;12.80;;;3.90;82.10;;;;;;4985948;28;20125;-64
2020/12/02 01:59:36;;;;;;;24.58;13.20;;;3.80;82.00;;;;;;4987248;28;20057;-63
2020/12/02 02:02:15;;;;;;;25.88;13.45;;;3.80;82.10;;;;;;4980999;28;20042;-63
2020/12/02 02:05:07;;;;;;;22.70;13.07;;;3.80;82.10;;;;;;4987727;28;20065;-63
2020/12/02 02:07:34;;;;;;;22.10;12.63;;;3.80;82.30;;;;;;4980220;28;20061;-63
2020/12/02 02:10:23;;;;;;;23.75;13.27;;;3.90;82.10;;;;;;4986612;28;20113;-63
2020/12/02 02:12:55;;;;;;;21.58;12.60;;;3.90;82.20;;;;;;5001864;28;20232;-63
2020/12/02 02:15:35;;;;;;;22.63;12.75;;;3.90;82.10;;;;;;4985828;28;20041;-63
2020/12/02 02:18:08;;;;;;;21.88;12.57;;;3.90;82.10;;;;;;4987599;28;20970;-64
2020/12/02 02:20:41;;;;;;;20.77;11.93;;;3.90;82.00;;;;;;4985201;28;20041;-64
2020/12/02 02:23:10;;;;;;;20.70;12.48;;;3.90;82.00;;;;;;4989607;28;20085;-64
2020/12/02 02:25:36;;;;;;;21.55;11.95;;;3.90;82.00;;;;;;5003611;28;20045;-63
2020/12/02 02:28:03;;;;;;;21.73;11.98;;;3.90;82.00;;;;;;5009543;28;20038;-63
2020/12/02 02:30:30;;;;;;;16.90;10.60;;;3.90;81.90;;;;;;5005335;28;20034;-63
2020/12/02 02:32:56;;;;;;;18.83;11.15;;;3.90;81.80;;;;;;5005496;28;20416;-64
2020/12/02 02:35:22;;;;;;;16.80;10.73;;;3.90;81.80;;;;;;4998627;28;20041;-64
2020/12/02 02:37:48;;;;;;;16.95;10.20;;;3.90;81.90;;;;;;4998885;28;20038;-64
2020/12/02 02:40:14;;;;;;;20.50;10.90;;;3.90;81.80;;;;;;5006252;28;20113;-63
2020/12/02 02:42:43;;;;;;;17.08;10.40;;;3.90;81.80;;;;;;5005820;28;20143;-64
2020/12/02 02:45:27;;;;;;;14.25;9.77;;;3.90;81.80;;;;;;5004068;28;20050;-63
2020/12/02 02:47:55;;;;;;;13.75;9.20;;;3.90;81.70;;;;;;5008127;28;20038;-63
2020/12/02 02:50:23;;;;;;;13.57;9.02;;;3.90;81.60;;;;;;5007149;28;20034;-63
2020/12/02 02:52:49;;;;;;;14.25;9.43;;;3.90;81.40;;;;;;5007635;28;20030;-64
2020/12/02 02:55:23;;;;;;;14.80;10.10;;;3.90;81.40;;;;;;5009267;28;20295;-63
2020/12/02 02:57:50;;;;;;;14.43;9.35;;;3.90;81.20;;;;;;4994765;28;20035;-63
2020/12/02 03:00:28;;;;;;;13.65;9.43;;;3.90;81.30;;;;;;4986585;28;20034;-64
2020/12/02 03:02:55;;;;;;;14.20;9.63;;;3.80;81.20;;;;;;5001133;28;20082;-63
2020/12/02 03:05:20;;;;;;;13.57;9.77;;;3.90;81.30;;;;;;5005099;28;20041;-64
2020/12/02 03:07:54;;;;;;;13.77;9.57;;;3.90;81.20;;;;;;4999208;28;20038;-63
2020/12/02 03:10:23;;;;;;;14.10;9.70;;;3.90;81.20;;;;;;5006290;28;20030;-64
2020/12/02 03:12:50;;;;;;;12.15;8.98;;;3.90;81.20;;;;;;5002256;28;20037;-63
2020/12/02 03:15:17;;;;;;;12.32;9.02;;;3.90;81.20;;;;;;4985876;28;20041;-63
2020/12/02 03:17:43;;;;;;;13.07;9.30;;;3.90;81.10;;;;;;4985835;28;20100;-63
2020/12/02 03:20:21;;;;;;;13.02;9.43;;;3.90;81.10;;;;;;4983577;28;20550;-63
2020/12/02 03:22:48;;;;;;;12.27;9.20;;;3.90;80.90;;;;;;4987904;28;20026;-63
2020/12/02 03:25:20;;;;;;;12.35;9.02;;;3.90;80.90;;;;;;4982904;28;20030;-63
2020/12/02 03:27:46;;;;;;;12.93;9.07;;;3.90;80.90;;;;;;4976521;28;20090;-63
2020/12/02 03:30:11;;;;;;;11.75;8.80;;;3.90;80.90;;;;;;4975767;28;20726;-63
2020/12/02 03:32:37;;;;;;;13.32;9.20;;;3.90;80.90;;;;;;4980495;28;20450;-63
2020/12/02 03:35:04;;;;;;;13.05;9.23;;;3.90;80.90;;;;;;4983555;28;20031;-63
2020/12/02 03:37:30;;;;;;;12.73;9.40;;;3.90;80.70;;;;;;4984661;28;20026;-63
2020/12/02 03:39:55;;;;;;;13.63;9.20;;;3.90;81.40;;;;;;4983308;28;20030;-63
2020/12/02 03:42:21;;;;;;;14.82;10.07;;;3.90;80.60;;;;;;4983100;28;20546;-62
2020/12/02 03:44:47;;;;;;;14.55;9.63;;;3.90;80.60;;;;;;4986643;28;20376;-63
2020/12/02 03:47:13;;;;;;;12.20;8.77;;;3.90;80.60;;;;;;4986670;28;20034;-63
2020/12/02 03:49:39;;;;;;;12.70;8.90;;;3.80;80.60;;;;;;4989871;28;20188;-63
2020/12/02 03:52:05;;;;;;;12.75;9.00;;;3.80;80.60;;;;;;4986007;28;20035;-63
2020/12/02 03:54:30;;;;;;;13.77;9.35;;;3.80;80.60;;;;;;5002363;28;20034;-63
2020/12/02 03:56:56;;;;;;;13.23;9.45;;;3.90;80.70;;;;;;4980602;28;20041;-63
2020/12/02 03:59:22;;;;;;;14.95;9.77;;;3.80;80.60;;;;;;4992513;28;20041;-63
2020/12/02 04:01:47;;;;;;;13.77;9.35;;;3.80;80.60;;;;;;5009527;28;20034;-63
2020/12/02 04:04:13;;;;;;;14.07;9.43;;;3.80;80.60;;;;;;5005997;28;20057;-63
2020/12/02 04:06:39;;;;;;;14.85;9.50;;;3.80;80.70;;;;;;5019077;28;20045;-63
2020/12/02 04:09:04;;;;;;;14.15;9.63;;;3.80;80.70;;;;;;5011201;28;20030;-63
2020/12/02 04:11:30;;;;;;;14.77;9.10;;;3.80;80.70;;;;;;5002974;28;20030;-63
2020/12/02 04:13:55;;;;;;;15.00;10.00;;;3.80;80.70;;;;;;4994577;28;20061;-63
2020/12/02 04:16:21;;;;;;;13.90;9.43;;;3.80;80.60;;;;;;4989657;28;20514;-63
2020/12/02 04:18:47;;;;;;;14.73;9.35;;;3.80;80.50;;;;;;4991078;28;20034;-63
2020/12/02 04:21:12;;;;;;;13.73;9.23;;;3.70;80.50;;;;;;4987884;28;20129;-63
2020/12/02 04:23:38;;;;;;;14.68;9.68;;;3.70;80.50;;;;;;4986740;28;20540;-63
2020/12/02 04:26:04;;;;;;;15.73;10.35;;;3.70;80.60;;;;;;4988128;28;20038;-63
2020/12/02 04:28:30;;;;;;;14.25;9.65;;;3.70;80.60;;;;;;4989856;28;20562;-63
2020/12/02 04:30:58;;;;;;;16.08;10.48;;;3.70;80.60;;;;;;4987276;28;20034;-63
2020/12/02 04:33:25;;;;;;;16.50;10.57;;;3.70;80.70;;;;;;4988747;28;20027;-63
2020/12/02 04:35:51;;;;;;;15.55;10.57;;;3.60;80.70;;;;;;4987953;28;20553;-63
2020/12/02 04:38:16;;;;;;;15.63;10.40;;;3.60;80.80;;;;;;4984581;28;20038;-63
2020/12/02 04:40:42;;;;;;;16.55;11.10;;;3.60;80.70;;;;;;4981619;28;20068;-63
2020/12/02 04:43:24;;;;;;;15.82;9.98;;;3.60;80.70;;;;;;4988268;28;20089;-63
2020/12/02 04:45:50;;;;;;;15.23;10.02;;;3.60;80.80;;;;;;5000183;28;20248;-63
2020/12/02 04:48:20;;;;;;;17.52;11.15;;;3.60;80.80;;;;;;5005700;28;20038;-63
2020/12/02 04:50:46;;;;;;;21.58;13.35;;;3.60;80.90;;;;;;5005887;28;20041;-63
2020/12/02 04:53:17;;;;;;;26.58;13.93;;;3.50;80.90;;;;;;5007918;28;20026;-62
2020/12/02 04:55:45;;;;;;;20.98;11.93;;;3.50;80.90;;;;;;5007244;28;20765;-62
2020/12/02 04:58:22;;;;;;;20.30;11.70;;;3.40;81.00;;;;;;5000162;28;20109;-62
2020/12/02 05:00:48;;;;;;;18.45;10.30;;;3.50;81.10;;;;;;4999991;28;20045;-62
2020/12/02 05:03:15;;;;;;;20.05;11.20;;;3.40;81.00;;;;;;4982594;28;20030;-62
2020/12/02 05:05:42;;;;;;;21.75;11.38;;;3.40;81.10;;;;;;4986228;28;20449;-63
2020/12/02 05:08:27;;;;;;;19.70;10.77;;;3.40;81.20;;;;;;4988681;28;20105;-62
2020/12/02 05:10:55;;;;;;;17.27;10.05;;;3.30;81.30;;;;;;4986410;28;20030;-64
2020/12/02 05:13:22;;;;;;;18.27;10.73;;;3.30;81.10;;;;;;4986278;28;20589;-62
2020/12/02 05:15:48;;;;;;;18.35;9.95;;;3.30;81.30;;;;;;4990327;28;20129;-62
2020/12/02 05:18:14;;;;;;;17.77;9.55;;;3.30;81.30;;;;;;4989684;28;20620;-62
2020/12/02 05:20:40;;;;;;;17.65;9.55;;;3.30;81.30;;;;;;4989385;28;20234;-62
2020/12/02 05:23:21;;;;;;;20.35;10.48;;;3.30;81.30;;;;;;4983463;28;20495;-62
2020/12/02 05:25:47;;;;;;;16.17;9.48;;;3.20;81.30;;;;;;4983171;28;20153;-61
2020/12/02 05:28:15;;;;;;;19.60;10.25;;;3.20;81.30;;;;;;4975290;28;20612;-62
2020/12/02 05:30:41;;;;;;;17.55;9.40;;;3.20;81.40;;;;;;4978813;28;20042;-62
2020/12/02 05:33:12;;;;;;;21.40;10.85;;;3.20;81.30;;;;;;5002964;28;20049;-62
2020/12/02 05:35:46;;;;;;;20.23;10.20;;;3.20;81.60;;;;;;5000785;28;20037;-63
2020/12/02 05:38:19;;;;;;;27.80;9.57;;;3.20;81.60;;;;;;4984740;28;20274;-65
2020/12/02 05:40:45;;;;;;;24.67;9.27;;;3.10;81.60;;;;;;4981062;28;20039;-65
2020/12/02 05:43:18;;;;;;;24.17;9.35;;;3.20;81.60;;;;;;4986324;28;20045;-65
2020/12/02 05:45:48;;;;;;;42.35;10.02;;;3.10;81.60;;;;;;4990406;28;20045;-65
2020/12/02 05:48:24;;;;;;;28.30;9.77;;;3.10;81.80;;;;;;4974883;28;20027;-65
2020/12/02 05:50:53;;;;;;;31.65;9.57;;;3.10;81.80;;;;;;4970946;28;20030;-65
2020/12/02 05:53:44;;;;;;;47.15;9.82;;;3.10;81.80;;;;;;4970534;28;20593;-65
2020/12/02 05:56:10;;;;;;;31.55;8.25;;;3.00;82.10;;;;;;4984130;28;20104;-65
2020/12/02 05:58:40;;;;;;;60.53;9.60;;;3.00;81.80;;;;;;4980351;28;20061;-65
2020/12/02 06:01:10;;;;;;;59.45;10.15;;;3.00;82.00;;;;;;4989884;28;20081;-62
2020/12/02 06:03:36;;;;;;;39.97;9.70;;;3.00;82.00;;;;;;4990433;28;20034;-62
2020/12/02 06:06:04;;;;;;;24.75;9.63;;;3.00;82.10;;;;;;4990422;28;20151;-63
2020/12/02 06:08:38;;;;;;;17.90;8.48;;;2.90;82.10;;;;;;4989041;28;20072;-62
2020/12/02 06:11:16;;;;;;;16.83;8.73;;;2.90;82.30;;;;;;4979255;28;20096;-65
2020/12/02 06:13:54;;;;;;;18.85;8.98;;;3.00;82.50;;;;;;4990422;28;20125;-65
2020/12/02 06:16:22;;;;;;;18.02;9.57;;;2.90;82.30;;;;;;4987174;28;20108;-64
2020/12/02 06:18:48;;;;;;;17.52;9.48;;;2.90;82.40;;;;;;4989189;28;20034;-64
2020/12/02 06:21:32;;;;;;;18.27;9.13;;;2.90;82.50;;;;;;4990534;28;20609;-65
2020/12/02 06:23:58;;;;;;;16.25;8.98;;;3.00;82.50;;;;;;4990190;28;20588;-65
2020/12/02 06:26:45;;;;;;;18.92;9.68;;;3.00;82.30;;;;;;4987097;28;20058;-64
2020/12/02 06:29:32;;;;;;;15.52;8.63;;;3.00;82.30;;;;;;4974969;28;20042;-65
2020/12/02 06:32:21;;;;;;;16.50;8.65;;;3.00;82.20;;;;;;4983659;28;20042;-62
2020/12/02 06:34:48;;;;;;;17.85;9.15;;;3.00;82.30;;;;;;4989487;28;20027;-65
2020/12/02 06:37:26;;;;;;;17.10;9.20;;;3.00;82.00;;;;;;4989582;28;20030;-65
2020/12/02 06:39:58;;;;;;;18.25;8.82;;;3.00;82.00;;;;;;4990210;28;20031;-64
2020/12/02 06:42:34;;;;;;;15.15;8.02;;;3.10;82.00;;;;;;4986961;28;20037;-63
2020/12/02 06:45:08;;;;;;;18.65;9.07;;;3.10;82.00;;;;;;4982491;28;20039;-64
2020/12/02 06:47:52;;;;;;;15.75;9.00;;;3.10;81.80;;;;;;4980544;28;20511;-64
2020/12/02 06:50:21;;;;;;;18.30;8.65;;;3.10;81.60;;;;;;4986450;28;20380;-64
2020/12/02 06:52:47;;;;;;;16.55;9.07;;;3.10;81.60;;;;;;4979164;28;20202;-64
2020/12/02 06:55:23;;;;;;;17.27;9.23;;;3.10;81.50;;;;;;4989971;28;20586;-63
2020/12/02 06:57:55;;;;;;;19.42;10.07;;;3.10;81.50;;;;;;4989886;28;20098;-64
2020/12/02 07:00:26;;;;;;;21.20;10.13;;;3.20;82.30;;;;;;4989278;28;20454;-64
2020/12/02 07:02:58;;;;;;;20.60;10.73;;;3.20;81.40;;;;;;4989221;28;20117;-64
2020/12/02 07:05:37;;;;;;;21.98;10.75;;;3.20;81.30;;;;;;4989576;28;20038;-64
2020/12/02 07:08:05;;;;;;;21.90;10.15;;;3.20;81.30;;;;;;4988990;28;20061;-64
2020/12/02 07:10:31;;;;;;;20.25;10.43;;;3.20;81.20;;;;;;4986179;28;20037;-64
2020/12/02 07:12:57;;;;;;;21.38;10.65;;;3.20;81.20;;;;;;4988905;28;20027;-64
2020/12/02 07:15:23;;;;;;;22.15;10.80;;;3.30;81.30;;;;;;4987951;28;20026;-64
2020/12/02 07:17:49;;;;;;;22.60;11.63;;;3.20;81.10;;;;;;4990186;28;20054;-61
2020/12/02 07:20:17;;;;;;;20.15;10.45;;;3.30;82.00;;;;;;4988392;28;20061;-61
2020/12/02 07:22:55;;;;;;;21.98;10.13;;;3.20;81.10;;;;;;4977784;28;20495;-61
2020/12/02 07:25:23;;;;;;;25.42;11.45;;;3.20;81.10;;;;;;4992811;28;20402;-63
2020/12/02 07:27:49;;;;;;;23.73;11.13;;;3.20;81.00;;;;;;4991729;28;20397;-63
2020/12/02 07:30:31;;;;;;;25.98;11.23;;;3.20;81.00;;;;;;4982338;28;20042;-63
2020/12/02 07:33:09;;;;;;;24.42;11.52;;;3.20;81.30;;;;;;4994498;28;20019;-63
2020/12/02 07:35:34;;;;;;;28.67;12.02;;;3.10;81.40;;;;;;5005042;28;20038;-63
2020/12/02 07:38:12;;;;;;;28.75;12.57;;;3.10;81.40;;;;;;5008626;28;20086;-63
2020/12/02 07:40:39;;;;;;;26.13;11.63;;;3.10;81.60;;;;;;4989568;28;20085;-64
2020/12/02 07:43:12;;;;;;;31.85;12.63;;;3.10;81.50;;;;;;5006992;28;20040;-64
2020/12/02 07:45:38;;;;;;;39.50;12.68;;;3.10;81.60;;;;;;5011701;28;20170;-64
2020/12/02 07:48:23;;;;;;;29.35;12.82;;;3.10;81.60;;;;;;5012490;28;20494;-61
2020/12/02 07:50:55;;;;;;;31.85;13.07;;;3.10;82.10;;;;;;4989521;28;20462;-64
2020/12/02 07:53:47;;;;;;;33.17;12.98;;;3.10;81.80;;;;;;4984293;28;20019;-64
2020/12/02 07:56:23;;;;;;;37.58;12.45;;;3.10;81.80;;;;;;5011225;28;20038;-64
2020/12/02 07:58:51;;;;;;;35.88;13.73;;;3.10;81.60;;;;;;5006315;28;20029;-64
2020/12/02 08:01:29;;;;;;;31.27;11.75;;;3.10;81.70;;;;;;5002651;28;20030;-63
2020/12/02 08:03:55;;;;;;;36.83;12.48;;;3.10;81.70;;;;;;4993245;28;20100;-64
2020/12/02 08:06:40;;;;;;;31.17;12.45;;;3.00;81.60;;;;;;4990646;28;20457;-64
2020/12/02 08:09:06;;;;;;;33.97;12.00;;;3.00;82.00;;;;;;4989608;28;20161;-64
2020/12/02 08:11:32;;;;;;;43.92;12.77;;;3.00;81.70;;;;;;4998751;28;20705;-63
2020/12/02 08:13:58;;;;;;;33.38;12.35;;;3.00;81.70;;;;;;4980620;28;20030;-63
2020/12/02 08:16:41;;;;;;;31.48;12.60;;;3.00;81.70;;;;;;4987931;28;20034;-63
2020/12/02 08:19:10;;;;;;;32.45;13.50;;;3.00;82.00;;;;;;4984714;28;20047;-64
2020/12/02 08:21:36;;;;;;;47.53;15.85;;;3.00;81.90;;;;;;4985417;28;20134;-63
2020/12/02 08:24:20;;;;;;;42.33;14.50;;;2.90;81.80;;;;;;4989768;28;20557;-63
2020/12/02 08:26:47;;;;;;;58.72;16.73;;;2.90;82.00;;;;;;4989351;28;20049;-63
2020/12/02 08:29:19;;;;;;;52.70;16.33;;;2.90;82.00;;;;;;4992488;28;20522;-63
2020/12/02 08:31:45;;;;;;;40.58;17.60;;;2.90;82.00;;;;;;5010333;28;20042;-64
2020/12/02 08:34:28;;;;;;;46.92;16.85;;;2.90;82.00;;;;;;5012026;28;20056;-64
2020/12/02 08:37:33;;;;;;;44.72;17.85;;;2.90;82.30;;;;;;5003920;28;20033;-64
2020/12/02 08:40:20;;;;;;;40.95;17.38;;;2.90;82.50;;;;;;5003324;28;20069;-63
2020/12/02 08:42:46;;;;;;;43.83;17.55;;;2.80;82.30;;;;;;5010361;28;20038;-63
2020/12/02 08:45:23;;;;;;;54.90;18.33;;;2.80;82.10;;;;;;5011829;28;20038;-64
2020/12/02 08:47:57;;;;;;;57.88;19.27;;;2.80;82.30;;;;;;5010221;28;20038;-63
2020/12/02 08:50:30;;;;;;;56.33;18.73;;;2.80;82.20;;;;;;5008321;28;20058;-63
2020/12/02 08:52:58;;;;;;;54.83;19.38;;;2.80;82.30;;;;;;5009895;28;20026;-64
2020/12/02 08:55:24;;;;;;;60.75;19.95;;;2.80;82.30;;;;;;5010863;28;20068;-63
2020/12/02 08:57:50;;;;;;;60.53;20.50;;;2.80;82.30;;;;;;5011608;28;20075;-64
2020/12/02 09:00:21;;;;;;;57.95;19.77;;;2.70;82.30;;;;;;5010298;28;20022;-64
2020/12/02 09:02:48;;;;;;;72.55;19.85;;;2.70;82.50;;;;;;5006893;28;20109;-63
2020/12/02 09:05:14;;;;;;;68.90;21.33;;;2.70;82.50;;;;;;4991993;28;20080;-63
2020/12/02 09:07:40;;;;;;;55.03;19.38;;;2.70;82.50;;;;;;4990174;28;20039;-64
2020/12/02 09:10:06;;;;;;;62.60;20.27;;;2.80;82.50;;;;;;4989898;28;20045;-63
2020/12/02 09:12:32;;;;;;;52.53;20.38;;;2.70;82.50;;;;;;4987942;28;20537;-63
2020/12/02 09:14:58;;;;;;;54.58;21.50;;;2.70;82.60;;;;;;4991292;28;20035;-63
2020/12/02 09:17:24;;;;;;;54.53;19.98;;;2.70;82.60;;;;;;4990680;28;20177;-63
2020/12/02 09:19:50;;;;;;;49.95;19.73;;;2.70;82.70;;;;;;4991295;28;20030;-63
2020/12/02 09:22:17;;;;;;;45.35;19.23;;;2.70;82.50;;;;;;4989424;28;20041;-63
2020/12/02 09:24:44;;;;;;;40.78;18.00;;;2.70;82.50;;;;;;4987698;28;20113;-60
2020/12/02 09:27:11;;;;;;;37.55;17.45;;;2.70;82.60;;;;;;4990451;28;20045;-61
2020/12/02 09:29:36;;;;;;;36.72;17.63;;;2.60;82.60;;;;;;5000390;28;20398;-60
2020/12/02 09:32:02;;;;;;;39.40;17.92;;;2.70;82.70;;;;;;5009119;28;20038;-63
2020/12/02 09:34:28;;;;;;;32.42;16.10;;;2.60;82.60;;;;;;5008595;28;20379;-63
2020/12/02 09:36:53;;;;;;;34.50;16.17;;;2.70;82.60;;;;;;5004279;28;20125;-62
2020/12/02 09:39:21;;;;;;;33.53;16.27;;;2.60;82.60;;;;;;5010268;28;20033;-63
2020/12/02 09:42:05;;;;;;;34.50;16.75;;;2.70;82.50;;;;;;5008983;28;20078;-63
2020/12/02 09:44:40;;;;;;;33.28;17.23;;;2.70;82.30;;;;;;5009589;28;20445;-61
2020/12/02 09:47:12;;;;;;;34.60;16.70;;;2.70;82.30;;;;;;4998191;28;20052;-61
2020/12/02 09:49:39;;;;;;;32.70;16.38;;;2.70;83.00;;;;;;4998304;28;20085;-61
2020/12/02 09:52:08;;;;;;;35.35;16.63;;;2.70;82.10;;;;;;5006243;28;20034;-60
2020/12/02 09:54:41;;;;;;;36.90;17.13;;;2.60;81.90;;;;;;4981790;28;20026;-60
2020/12/02 09:57:18;;;;;;;34.95;17.02;;;2.60;81.90;;;;;;4990803;28;20033;-63
2020/12/02 09:59:44;;;;;;;35.22;15.75;;;2.60;81.80;;;;;;5007035;28;20462;-63
2020/12/02 10:02:24;;;;;;;35.75;15.40;;;2.60;81.70;;;;;;5009754;28;20030;-63
2020/12/02 10:05:25;;;;;;;31.60;14.60;;;2.50;81.60;;;;;;4997778;28;20101;-63
2020/12/02 10:08:04;;;;;;;30.35;14.18;;;2.50;81.60;;;;;;5005738;28;20034;-63
2020/12/02 10:11:03;;;;;;;31.20;13.73;;;2.50;81.40;;;;;;5000872;28;20678;-63
2020/12/02 10:13:58;;;;;;;28.48;11.65;;;2.40;81.30;;;;;;4991601;28;20038;-63
2020/12/02 10:16:58;;;;;;;27.20;12.45;;;2.30;81.10;;;;;;5003120;28;20034;-62
2020/12/02 10:19:48;;;;;;;25.98;12.32;;;2.30;81.20;;;;;;4988087;28;20033;-64
2020/12/02 10:22:22;;;;;;;29.40;12.52;;;2.20;81.20;;;;;;4986884;28;20446;-64
2020/12/02 10:24:51;;;;;;;28.40;11.93;;;2.20;81.10;;;;;;4981765;28;20058;-64
2020/12/02 10:27:49;;;;;;;25.88;12.10;;;2.20;80.90;;;;;;4989994;28;20504;-64
2020/12/02 10:30:22;;;;;;;26.90;12.13;;;2.10;80.90;;;;;;4985515;28;20498;-64
2020/12/02 10:33:28;;;;;;;25.75;12.00;;;2.10;80.90;;;;;;4987206;28;20141;-64
2020/12/02 10:35:55;;;;;;;25.65;11.57;;;2.10;81.00;;;;;;4986665;28;20085;-64
2020/12/02 10:38:39;;;;;;;29.05;12.25;;;2.00;80.90;;;;;;4988689;28;20034;-64
2020/12/02 10:41:29;;;;;;;26.92;12.88;;;2.00;81.10;;;;;;4979678;28;20022;-64
2020/12/02 10:44:17;;;;;;;28.40;12.35;;;2.00;81.20;;;;;;4978234;28;20037;-64
2020/12/02 10:47:01;;;;;;;25.48;12.25;;;2.00;81.10;;;;;;4977599;28;20896;-64
2020/12/02 10:49:29;;;;;;;27.10;11.93;;;2.00;81.10;;;;;;4979511;28;20495;-64
2020/12/02 10:51:58;;;;;;;26.70;12.23;;;2.00;81.10;;;;;;4979620;28;20043;-64
2020/12/02 10:54:35;;;;;;;28.17;12.43;;;2.00;81.10;;;;;;5006463;28;20041;-64
2020/12/02 10:57:03;;;;;;;30.02;12.27;;;1.90;81.10;;;;;;5019722;28;20036;-64
2020/12/02 10:59:29;;;;;;;31.52;13.57;;;1.90;81.20;;;;;;5012094;28;20034;-63
2020/12/02 11:01:54;;;;;;;36.67;13.65;;;1.90;81.30;;;;;;5011585;28;20040;-64
2020/12/02 11:04:21;;;;;;;31.13;13.77;;;1.90;81.20;;;;;;5004454;28;20130;-63
2020/12/02 11:07:08;;;;;;;31.80;13.43;;;1.90;81.20;;;;;;5003980;28;20053;-63
2020/12/02 11:09:48;;;;;;;30.85;13.20;;;1.90;81.20;;;;;;5009650;28;20084;-63
2020/12/02 11:12:58;;;;;;;33.88;14.15;;;1.90;81.20;;;;;;5008097;28;20034;-60
2020/12/02 11:15:33;;;;;;;30.40;13.18;;;2.00;81.30;;;;;;4999955;28;20026;-63
2020/12/02 11:18:29;;;;;;;33.08;13.52;;;1.90;81.10;;;;;;5013201;28;20038;-63
2020/12/02 11:21:40;;;;;;;29.13;13.00;;;1.90;81.00;;;;;;4995501;28;20027;-63
2020/12/02 11:24:28;;;;;;;28.70;12.88;;;1.90;80.90;;;;;;4988756;28;20114;-63
2020/12/02 11:26:54;;;;;;;29.02;12.98;;;1.90;80.80;;;;;;4982649;28;20034;-63
2020/12/02 11:29:20;;;;;;;31.40;12.45;;;1.90;80.80;;;;;;4979657;28;20035;-63
2020/12/02 11:31:58;;;;;;;31.77;14.45;;;1.90;80.90;;;;;;4985107;28;20053;-63
2020/12/02 11:34:48;;;;;;;30.85;13.48;;;1.90;80.60;;;;;;4993578;28;20114;-62
2020/12/02 11:37:30;;;;;;;27.98;13.07;;;1.90;80.60;;;;;;4993311;28;20542;-63
2020/12/02 11:40:05;;;;;;;32.40;14.13;;;1.90;80.60;;;;;;4992244;28;20387;-63
2020/12/02 11:42:42;;;;;;;31.40;13.50;;;1.90;80.60;;;;;;4986639;28;20108;-63
2020/12/02 11:45:17;;;;;;;30.83;13.80;;;1.90;80.50;;;;;;4979863;28;20507;-63
2020/12/02 11:48:01;;;;;;;31.60;14.40;;;1.90;80.20;;;;;;4983879;28;20104;-63
2020/12/02 11:50:33;;;;;;;29.20;13.63;;;1.80;80.30;;;;;;4988360;28;20034;-63
2020/12/02 11:53:21;;;;;;;29.27;13.30;;;1.80;80.20;;;;;;4984102;28;20391;-63
2020/12/02 11:55:47;;;;;;;32.72;14.23;;;1.80;80.10;;;;;;4984721;28;20035;-63
2020/12/02 11:58:14;;;;;;;33.63;14.43;;;1.80;80.20;;;;;;4992308;28;21851;-63
2020/12/02 12:00:40;;;;;;;29.58;13.60;;;1.90;80.20;;;;;;4990733;28;20100;-63
2020/12/02 12:03:40;;;;;;;27.88;12.82;;;1.80;80.20;;;;;;4988715;28;20619;-62
2020/12/02 12:06:16;;;;;;;31.05;13.50;;;1.80;80.20;;;;;;4987413;28;20154;-63
2020/12/02 12:09:11;;;;;;;33.75;14.52;;;1.80;80.40;;;;;;4991245;28;20030;-63
2020/12/02 12:11:39;;;;;;;32.22;13.85;;;1.90;80.30;;;;;;4989653;28;20081;-63
2020/12/02 12:14:14;;;;;;;33.08;13.77;;;1.90;80.40;;;;;;4990965;28;20097;-63
2020/12/02 12:16:48;;;;;;;32.90;13.55;;;1.90;80.10;;;;;;4994049;28;20035;-63
2020/12/02 12:19:26;;;;;;;29.92;13.32;;;1.90;80.10;;;;;;5010921;28;20409;-63
2020/12/02 12:22:11;;;;;;;37.22;14.15;;;1.90;80.20;;;;;;5011565;28;20062;-63
2020/12/02 12:24:37;;;;;;;39.67;16.20;;;1.90;79.70;;;;;;5009524;28;20030;-63
2020/12/02 12:27:03;;;;;;;34.45;15.40;;;1.90;79.90;;;;;;5006312;28;20043;-63
2020/12/02 12:29:28;;;;;;;31.13;13.55;;;1.90;79.90;;;;;;5010870;28;20042;-63
2020/12/02 12:32:32;;;;;;;31.77;13.85;;;1.90;80.10;;;;;;5009601;28;20048;-63
2020/12/02 12:35:00;;;;;;;34.45;14.50;;;2.00;80.20;;;;;;4979863;28;20045;-63
2020/12/02 12:37:46;;;;;;;29.88;13.75;;;2.00;80.20;;;;;;4988599;28;20035;-63
2020/12/02 12:40:23;;;;;;;36.95;14.90;;;2.00;79.90;;;;;;5000925;28;20065;-63
2020/12/02 12:42:54;;;;;;;29.05;13.48;;;2.00;79.70;;;;;;5010039;28;20117;-63
2020/12/02 12:45:25;;;;;;;30.38;13.90;;;2.10;79.60;;;;;;5004421;28;20121;-63
2020/12/02 12:47:56;;;;;;;33.53;13.65;;;2.10;79.50;;;;;;5002897;28;20089;-63
2020/12/02 12:50:22;;;;;;;30.63;13.13;;;2.10;80.10;;;;;;5004655;28;20034;-63
2020/12/02 12:52:50;;;;;;;32.70;13.50;;;2.20;79.40;;;;;;5001630;28;20625;-63
2020/12/02 12:55:16;;;;;;;35.38;14.15;;;2.10;79.20;;;;;;5004023;28;20100;-63
2020/12/02 12:57:50;;;;;;;28.67;13.57;;;2.10;79.20;;;;;;4996054;28;20042;-63
2020/12/02 13:00:17;;;;;;;34.07;14.63;;;2.10;78.90;;;;;;5005602;28;20093;-63
2020/12/02 13:02:43;;;;;;;33.28;14.30;;;2.20;79.10;;;;;;4998153;28;20048;-63
2020/12/02 13:05:13;;;;;;;36.20;13.68;;;2.20;79.00;;;;;;5006652;28;20034;-63